Asherville, Missouri
Current Conditions -  °F | °C
As of 9:53 AM on Monday 26 Jan 2015 (Local Time) from KPOF Reporting Station
Overcast Overcast  
Wind Chill: -1°   Ceiling: 2000
Heat Index:   Visibility: 10mi
Dew Point: -3°   Wind: 7mph
Humidity: 70%   Direction: 290°WNW
Pressure: 30.09"   Gusts: NA
Location:  36.9506°N, 90.1582°W
Report Text: KPOF 261553Z AUTO 29006KT 10SM OVC020 02/M03 A3009 RMK AO2 SLP196 T00221028
Loading
Personal Weather Stations






























Interactive Weather Map New forecast layout! Learn more

10-Day Weather Forecast

Advertisements
Track Severe Weather on mobile